Time;durP1;ratioP1;P1;durP2;ratioP2;P2;SDS_P1;SDS_P2;PMS_P1;PMS_P2;Temp;Humidity;BMP_temperature;BMP_pressure;BME280_temperature;BME280_humidity;BME280_pressure;Samples;Min_cycle;Max_cycle;Signal;HPM_P1;HPM_P2
2023/09/11 00:02:20;;;;;;;7.72;7.13;;;23.60;99.90;;;;;;4955052;28;20734;-70
2023/09/11 00:04:46;;;;;;;7.15;6.55;;;23.60;99.90;;;;;;4978199;28;20701;-69
2023/09/11 00:07:13;;;;;;;6.68;6.18;;;23.50;99.90;;;;;;4939657;29;20199;-70
2023/09/11 00:09:39;;;;;;;6.65;6.15;;;23.50;99.90;;;;;;4958262;28;20197;-70
2023/09/11 00:12:05;;;;;;;7.45;6.90;;;23.50;99.90;;;;;;4956820;28;20189;-69
2023/09/11 00:14:31;;;;;;;7.25;6.65;;;23.50;99.90;;;;;;4949150;29;20210;-71
2023/09/11 00:16:57;;;;;;;7.32;6.75;;;23.50;99.90;;;;;;4972494;28;20201;-70
2023/09/11 00:19:22;;;;;;;7.18;6.50;;;23.50;99.90;;;;;;4958056;28;20193;-70
2023/09/11 00:21:48;;;;;;;7.05;6.45;;;23.50;99.90;;;;;;4942470;28;20232;-69
2023/09/11 00:24:14;;;;;;;7.20;6.60;;;23.50;99.90;;;;;;4948911;28;20638;-69
2023/09/11 00:26:39;;;;;;;7.18;6.47;;;23.50;99.90;;;;;;4965571;28;20206;-72
2023/09/11 00:29:05;;;;;;;7.18;6.57;;;23.50;99.90;;;;;;4952092;28;20619;-69
2023/09/11 00:31:31;;;;;;;7.40;6.80;;;23.50;99.90;;;;;;4960495;28;20191;-70
2023/09/11 00:33:56;;;;;;;6.78;6.28;;;23.50;99.90;;;;;;4958982;28;20189;-69
2023/09/11 00:36:22;;;;;;;6.93;6.43;;;23.50;99.90;;;;;;4954226;28;20657;-70
2023/09/11 00:38:50;;;;;;;7.45;6.85;;;23.50;99.90;;;;;;4952323;28;20236;-70
2023/09/11 00:41:16;;;;;;;7.55;6.95;;;23.50;99.90;;;;;;4942040;28;20193;-69
2023/09/11 00:43:42;;;;;;;7.82;7.13;;;23.50;99.90;;;;;;4941509;28;20281;-70
2023/09/11 00:46:08;;;;;;;7.43;6.82;;;23.50;99.90;;;;;;4956339;28;20304;-70
2023/09/11 00:48:34;;;;;;;7.05;6.55;;;23.50;99.90;;;;;;4957633;28;20190;-70
2023/09/11 00:51:00;;;;;;;7.28;6.68;;;23.50;99.90;;;;;;4941225;28;20584;-70
2023/09/11 00:53:27;;;;;;;7.13;6.63;;;23.50;99.90;;;;;;4957251;28;20186;-69
2023/09/11 00:55:53;;;;;;;6.03;5.63;;;23.50;99.90;;;;;;4956896;28;20226;-70
2023/09/11 00:58:20;;;;;;;6.63;6.13;;;23.50;99.90;;;;;;4974643;28;20178;-69
2023/09/11 01:00:48;;;;;;;6.25;5.75;;;23.50;99.90;;;;;;4957130;28;20209;-69
2023/09/11 01:03:14;;;;;;;7.22;6.63;;;23.50;99.90;;;;;;4950721;28;20189;-70
2023/09/11 01:05:41;;;;;;;6.80;6.30;;;23.50;99.90;;;;;;4949134;29;20601;-69
2023/09/11 01:08:08;;;;;;;7.13;6.63;;;23.50;99.90;;;;;;4980398;28;20289;-70
2023/09/11 01:10:35;;;;;;;6.50;6.00;;;23.50;99.90;;;;;;4955039;28;20200;-70
2023/09/11 01:13:03;;;;;;;7.05;6.47;;;23.50;99.90;;;;;;4957869;28;20251;-69
2023/09/11 01:15:46;;;;;;;7.07;6.47;;;23.50;99.90;;;;;;4956747;28;20245;-70
2023/09/11 01:18:40;;;;;;;7.30;6.80;;;23.40;99.90;;;;;;4960255;28;20207;-69
2023/09/11 01:21:20;;;;;;;6.88;6.38;;;23.50;99.90;;;;;;4957210;28;20194;-70
2023/09/11 01:24:26;;;;;;;6.80;6.30;;;23.50;99.90;;;;;;4956873;28;20192;-70
2023/09/11 01:27:45;;;;;;;7.25;6.75;;;23.40;99.90;;;;;;4956625;28;20213;-70
2023/09/11 01:30:12;;;;;;;6.68;6.18;;;23.50;99.90;;;;;;4955732;28;20201;-69
2023/09/11 01:32:40;;;;;;;7.60;6.90;;;23.50;99.90;;;;;;4947574;28;20200;-69
2023/09/11 01:35:06;;;;;;;7.25;6.60;;;23.40;99.90;;;;;;4963215;28;20214;-69
2023/09/11 01:37:33;;;;;;;6.68;6.18;;;23.40;99.90;;;;;;4957062;28;20206;-70
2023/09/11 01:39:59;;;;;;;6.88;6.40;;;23.40;99.90;;;;;;4956442;28;20192;-69
2023/09/11 01:42:44;;;;;;;7.32;6.57;;;23.40;99.90;;;;;;4960522;28;20181;-70
2023/09/11 01:45:14;;;;;;;6.53;6.03;;;23.40;99.90;;;;;;4939956;28;20708;-69
2023/09/11 01:47:45;;;;;;;6.20;5.78;;;23.40;99.90;;;;;;4940491;28;20248;-69
2023/09/11 01:50:15;;;;;;;7.28;6.70;;;23.40;99.90;;;;;;4955882;28;20224;-71
2023/09/11 01:52:45;;;;;;;6.93;6.32;;;23.40;99.90;;;;;;4956357;28;20198;-70
2023/09/11 01:55:11;;;;;;;7.20;6.60;;;23.40;99.90;;;;;;4946312;28;20272;-70
2023/09/11 01:57:37;;;;;;;6.55;6.05;;;23.40;99.90;;;;;;4953389;28;20181;-70
2023/09/11 02:00:05;;;;;;;6.90;6.30;;;23.40;99.90;;;;;;4956742;28;20217;-70
2023/09/11 02:02:38;;;;;;;7.30;6.70;;;23.40;99.90;;;;;;4957616;28;20204;-70
2023/09/11 02:05:05;;;;;;;7.15;6.55;;;23.40;99.90;;;;;;4955756;28;20217;-70
2023/09/11 02:07:31;;;;;;;7.40;6.80;;;23.40;99.90;;;;;;4961539;28;20189;-69
2023/09/11 02:09:56;;;;;;;6.55;6.05;;;23.40;99.90;;;;;;4941520;28;20196;-70
2023/09/11 02:12:25;;;;;;;6.80;6.30;;;23.40;99.90;;;;;;4945306;29;20182;-70
2023/09/11 02:14:50;;;;;;;7.05;6.53;;;23.40;99.90;;;;;;4962469;28;20229;-69
2023/09/11 02:17:16;;;;;;;6.95;6.45;;;23.40;99.90;;;;;;4939916;28;20177;-70
2023/09/11 02:19:42;;;;;;;6.90;6.40;;;23.40;99.90;;;;;;4963208;28;20244;-70
2023/09/11 02:22:08;;;;;;;7.13;6.60;;;23.40;99.90;;;;;;4963242;28;20213;-69
2023/09/11 02:24:34;;;;;;;6.75;6.30;;;23.40;99.90;;;;;;4955300;28;20194;-70
2023/09/11 02:26:59;;;;;;;6.55;6.05;;;23.40;99.90;;;;;;4955885;28;20193;-69
2023/09/11 02:29:25;;;;;;;7.38;6.78;;;23.40;99.90;;;;;;4946994;28;20563;-70
2023/09/11 02:31:51;;;;;;;7.10;6.20;;;23.40;99.90;;;;;;4939825;28;20197;-70
2023/09/11 02:34:16;;;;;;;6.53;6.03;;;23.40;99.90;;;;;;4955643;28;20268;-70
2023/09/11 02:36:42;;;;;;;6.65;6.15;;;23.40;99.90;;;;;;4955665;28;20725;-69
2023/09/11 02:39:08;;;;;;;6.68;6.18;;;23.40;99.90;;;;;;4939919;28;20193;-69
2023/09/11 02:41:34;;;;;;;6.60;6.10;;;23.40;99.90;;;;;;4955864;28;20194;-70
2023/09/11 02:43:59;;;;;;;6.72;6.22;;;23.40;99.90;;;;;;4947644;28;20192;-69
2023/09/11 02:46:25;;;;;;;6.55;6.05;;;23.30;99.90;;;;;;4943291;29;20206;-70
2023/09/11 02:48:51;;;;;;;7.05;6.45;;;23.30;99.90;;;;;;4955347;28;20197;-71
2023/09/11 02:51:17;;;;;;;6.10;5.70;;;23.30;99.90;;;;;;4954441;28;20198;-70
2023/09/11 02:53:43;;;;;;;6.70;6.20;;;23.30;99.90;;;;;;4956630;28;20190;-70
2023/09/11 02:56:09;;;;;;;6.30;5.85;;;23.40;99.90;;;;;;4941871;28;20750;-70
2023/09/11 02:58:34;;;;;;;7.40;6.80;;;23.30;99.90;;;;;;4976997;28;20309;-69
2023/09/11 03:01:05;;;;;;;6.32;5.88;;;23.30;99.90;;;;;;4958173;28;20205;-69
2023/09/11 03:03:31;;;;;;;6.60;6.10;;;23.30;99.90;;;;;;4940666;29;20662;-69
2023/09/11 03:06:02;;;;;;;6.28;5.88;;;23.30;99.90;;;;;;4936508;28;20213;-69
2023/09/11 03:08:29;;;;;;;6.72;6.22;;;23.30;99.90;;;;;;4944946;28;20197;-69
2023/09/11 03:11:09;;;;;;;7.00;6.40;;;23.30;99.90;;;;;;4957860;28;20204;-69
2023/09/11 03:13:37;;;;;;;6.38;5.88;;;23.40;99.90;;;;;;4942423;28;20288;-69
2023/09/11 03:16:12;;;;;;;6.72;6.22;;;23.30;99.90;;;;;;4966167;28;20230;-69
2023/09/11 03:18:41;;;;;;;6.45;5.82;;;23.40;99.90;;;;;;4943790;28;20239;-70
2023/09/11 03:21:08;;;;;;;6.55;6.05;;;23.30;99.90;;;;;;4943158;28;20256;-69
2023/09/11 03:23:34;;;;;;;6.47;5.97;;;23.30;99.90;;;;;;4959279;28;20196;-70
2023/09/11 03:26:00;;;;;;;7.00;6.50;;;23.30;99.90;;;;;;4942746;28;20221;-73
2023/09/11 03:28:28;;;;;;;6.30;5.82;;;23.40;99.90;;;;;;4954284;28;20279;-70
2023/09/11 03:30:54;;;;;;;6.57;6.10;;;23.30;99.90;;;;;;4959648;28;20750;-70
2023/09/11 03:33:20;;;;;;;6.25;5.72;;;23.30;99.90;;;;;;4982659;28;20281;-69
2023/09/11 03:35:47;;;;;;;7.07;6.50;;;23.30;99.90;;;;;;4949206;28;20222;-70
2023/09/11 03:38:14;;;;;;;6.70;6.20;;;23.30;99.90;;;;;;4958645;28;20193;-70
2023/09/11 03:40:41;;;;;;;6.53;6.03;;;23.30;99.90;;;;;;4959177;28;20190;-70
2023/09/11 03:43:07;;;;;;;6.97;6.47;;;23.30;99.90;;;;;;4960674;28;20196;-70
2023/09/11 03:45:34;;;;;;;6.70;6.10;;;23.30;99.90;;;;;;4952483;29;20217;-69
2023/09/11 03:48:00;;;;;;;6.50;5.97;;;23.30;99.90;;;;;;4958538;28;20190;-69
2023/09/11 03:50:26;;;;;;;6.90;6.38;;;23.30;99.90;;;;;;4953582;28;20280;-69
2023/09/11 03:52:52;;;;;;;7.10;6.60;;;23.30;99.90;;;;;;4944854;28;20197;-70
2023/09/11 03:55:18;;;;;;;6.60;6.10;;;23.30;99.90;;;;;;4971028;28;20231;-69
2023/09/11 03:57:44;;;;;;;6.80;6.20;;;23.30;99.90;;;;;;4965006;28;20196;-71
2023/09/11 04:00:11;;;;;;;6.63;6.13;;;23.30;99.90;;;;;;4960461;28;20221;-70
2023/09/11 04:02:40;;;;;;;6.35;5.85;;;23.30;99.90;;;;;;4948435;28;20233;-69
2023/09/11 04:05:06;;;;;;;7.18;5.90;;;23.30;99.90;;;;;;4955718;28;20217;-70
2023/09/11 04:07:32;;;;;;;6.38;5.88;;;23.30;99.90;;;;;;4947277;28;20225;-70
2023/09/11 04:09:58;;;;;;;6.10;5.60;;;23.30;99.90;;;;;;4958127;28;20221;-69
2023/09/11 04:12:24;;;;;;;6.45;6.05;;;23.30;99.90;;;;;;4958253;28;20194;-69
2023/09/11 04:14:51;;;;;;;6.10;5.60;;;23.30;99.90;;;;;;4957775;28;20263;-70
2023/09/11 04:17:16;;;;;;;6.10;5.70;;;23.30;99.90;;;;;;4966112;28;20247;-70
2023/09/11 04:19:43;;;;;;;6.13;5.63;;;23.30;99.90;;;;;;4958389;28;20272;-70
2023/09/11 04:22:10;;;;;;;6.00;5.55;;;23.30;99.90;;;;;;4956489;28;20328;-69
2023/09/11 04:24:37;;;;;;;6.40;5.88;;;23.30;99.90;;;;;;4957620;28;20186;-69
2023/09/11 04:27:03;;;;;;;6.82;6.32;;;23.30;99.90;;;;;;4964438;28;20201;-70
2023/09/11 04:29:31;;;;;;;6.15;5.72;;;23.30;99.90;;;;;;4958062;28;20194;-69
2023/09/11 04:31:57;;;;;;;6.70;6.20;;;23.30;99.90;;;;;;4954227;28;20215;-70
2023/09/11 04:34:24;;;;;;;6.63;6.18;;;23.30;99.90;;;;;;4966918;28;20284;-69
2023/09/11 04:36:50;;;;;;;5.68;5.28;;;23.30;99.90;;;;;;4944010;28;20681;-70
2023/09/11 04:39:15;;;;;;;6.03;5.53;;;23.30;99.90;;;;;;4957608;28;20193;-69
2023/09/11 04:41:42;;;;;;;6.10;5.68;;;23.30;99.90;;;;;;4947486;29;20190;-69
2023/09/11 04:44:08;;;;;;;6.70;6.20;;;23.20;99.90;;;;;;4953871;28;20194;-69
2023/09/11 04:46:34;;;;;;;6.20;5.78;;;23.30;99.90;;;;;;4963670;28;20227;-70
2023/09/11 04:49:00;;;;;;;6.20;5.75;;;23.20;99.90;;;;;;4957342;28;20197;-70
2023/09/11 04:51:26;;;;;;;6.25;5.75;;;23.30;99.90;;;;;;4941751;28;20190;-70
2023/09/11 04:53:51;;;;;;;6.72;6.22;;;23.30;99.90;;;;;;4957332;28;20189;-71
2023/09/11 04:56:17;;;;;;;6.57;6.07;;;23.30;99.90;;;;;;4964905;28;20648;-69
2023/09/11 04:58:43;;;;;;;6.20;5.70;;;23.30;99.90;;;;;;4981144;28;20190;-71
2023/09/11 05:01:10;;;;;;;6.50;6.00;;;23.30;99.90;;;;;;4957593;28;20221;-70
2023/09/11 05:03:37;;;;;;;6.28;5.82;;;23.20;99.90;;;;;;4957271;28;20200;-69
2023/09/11 05:06:03;;;;;;;6.10;5.70;;;23.20;99.90;;;;;;4956970;28;20297;-69
2023/09/11 05:08:29;;;;;;;5.75;5.35;;;23.20;99.90;;;;;;4961550;28;20283;-68
2023/09/11 05:10:55;;;;;;;5.90;5.50;;;23.20;99.90;;;;;;4943428;28;20284;-68
2023/09/11 05:13:21;;;;;;;5.88;5.38;;;23.20;99.90;;;;;;4940996;28;20233;-69
2023/09/11 05:15:49;;;;;;;5.60;5.20;;;23.30;99.90;;;;;;4946758;28;20228;-68
2023/09/11 05:18:15;;;;;;;5.47;5.07;;;23.30;99.90;;;;;;4941258;28;20192;-69
2023/09/11 05:20:41;;;;;;;6.25;5.75;;;23.20;99.90;;;;;;4957429;28;20190;-69
2023/09/11 05:23:07;;;;;;;5.63;5.22;;;23.30;99.90;;;;;;4957316;28;20205;-69
2023/09/11 05:25:36;;;;;;;6.57;6.07;;;23.20;99.90;;;;;;4960840;28;20221;-71
2023/09/11 05:28:02;;;;;;;6.38;5.97;;;23.30;99.90;;;;;;4941357;28;20201;-70
2023/09/11 05:30:28;;;;;;;6.10;5.70;;;23.20;99.90;;;;;;4961911;28;20193;-69
2023/09/11 05:32:54;;;;;;;6.53;6.03;;;23.20;99.90;;;;;;4940801;28;20682;-69
2023/09/11 05:35:21;;;;;;;6.28;5.70;;;23.20;99.90;;;;;;4940715;28;20256;-69
2023/09/11 05:37:46;;;;;;;6.30;5.80;;;23.20;99.90;;;;;;4935510;28;20183;-69
2023/09/11 05:40:12;;;;;;;6.18;5.68;;;23.20;99.90;;;;;;4944047;28;20185;-69
2023/09/11 05:42:38;;;;;;;6.93;6.32;;;23.20;99.90;;;;;;4945077;29;20186;-69
2023/09/11 05:45:06;;;;;;;5.80;5.30;;;23.20;99.90;;;;;;4955714;28;20693;-69
2023/09/11 05:47:32;;;;;;;5.78;5.38;;;23.20;99.90;;;;;;4936956;29;20213;-69
2023/09/11 05:50:00;;;;;;;6.03;5.43;;;23.30;99.90;;;;;;4956320;28;20288;-69
2023/09/11 05:52:27;;;;;;;5.70;5.30;;;23.20;99.90;;;;;;4976907;28;20282;-69
2023/09/11 05:54:53;;;;;;;5.50;5.10;;;23.30;99.90;;;;;;4973801;28;20251;-69
2023/09/11 05:57:19;;;;;;;6.05;5.65;;;23.20;99.90;;;;;;4955944;28;20198;-69
2023/09/11 05:59:45;;;;;;;6.10;5.60;;;23.20;99.90;;;;;;4979392;28;20194;-69
2023/09/11 06:02:12;;;;;;;5.72;5.32;;;23.20;99.90;;;;;;4956372;28;20196;-69
2023/09/11 06:04:38;;;;;;;5.50;5.10;;;23.20;99.90;;;;;;4955746;28;20209;-69
2023/09/11 06:07:04;;;;;;;5.88;5.38;;;23.30;99.90;;;;;;4939711;28;20208;-69
2023/09/11 06:09:30;;;;;;;5.65;5.18;;;23.20;99.90;;;;;;4973381;28;20197;-69
2023/09/11 06:11:57;;;;;;;6.00;5.57;;;23.20;99.90;;;;;;4956273;28;20243;-70
2023/09/11 06:14:23;;;;;;;6.43;5.85;;;23.20;99.90;;;;;;4939912;28;20185;-69
2023/09/11 06:16:49;;;;;;;5.60;5.13;;;23.20;99.90;;;;;;4946048;28;20276;-69
2023/09/11 06:19:15;;;;;;;5.95;5.55;;;23.20;99.90;;;;;;4955848;28;20201;-69
2023/09/11 06:21:44;;;;;;;5.60;5.20;;;23.20;99.90;;;;;;4950763;28;20199;-69
2023/09/11 06:24:10;;;;;;;5.88;5.38;;;23.30;99.90;;;;;;4944140;28;20561;-69
2023/09/11 06:26:36;;;;;;;5.60;5.20;;;23.30;99.90;;;;;;4960376;28;20214;-69
2023/09/11 06:29:02;;;;;;;6.00;5.60;;;23.20;99.90;;;;;;4955135;28;20627;-69
2023/09/11 06:31:29;;;;;;;5.97;5.57;;;23.20;99.90;;;;;;4955860;28;20193;-69
2023/09/11 06:33:55;;;;;;;5.75;5.32;;;23.30;99.90;;;;;;4972749;28;20248;-69
2023/09/11 06:36:21;;;;;;;6.18;5.68;;;23.20;99.90;;;;;;4958008;28;20221;-69
2023/09/11 06:38:46;;;;;;;5.65;5.25;;;23.20;99.90;;;;;;4964051;28;20197;-69
2023/09/11 06:41:12;;;;;;;6.13;5.57;;;23.20;99.90;;;;;;4955276;28;20197;-69
2023/09/11 06:43:38;;;;;;;5.80;5.40;;;23.20;99.90;;;;;;4952088;28;20193;-69
2023/09/11 06:46:04;;;;;;;6.70;5.40;;;23.20;99.90;;;;;;4961365;28;20300;-69
2023/09/11 06:48:29;;;;;;;5.60;5.20;;;23.20;99.90;;;;;;4948903;28;20189;-69
2023/09/11 06:50:55;;;;;;;5.90;5.45;;;23.20;99.90;;;;;;4949346;28;20194;-69
2023/09/11 06:53:21;;;;;;;5.68;5.28;;;23.30;99.90;;;;;;4939488;28;20193;-69
2023/09/11 06:55:47;;;;;;;5.63;5.22;;;23.20;99.90;;;;;;4955097;28;20225;-69
2023/09/11 06:58:13;;;;;;;5.55;5.15;;;23.30;99.90;;;;;;4950922;28;20196;-69
2023/09/11 07:00:40;;;;;;;5.57;5.18;;;23.20;99.90;;;;;;4949750;28;20240;-69
2023/09/11 07:03:06;;;;;;;5.85;5.45;;;23.20;99.90;;;;;;4955521;28;20272;-69
2023/09/11 07:05:32;;;;;;;6.05;5.45;;;23.30;99.90;;;;;;4959176;28;20336;-69
2023/09/11 07:07:58;;;;;;;6.05;5.60;;;23.30;99.90;;;;;;4956927;28;20268;-69
2023/09/11 07:10:24;;;;;;;5.85;5.35;;;23.30;99.90;;;;;;4950275;28;20197;-69
2023/09/11 07:12:50;;;;;;;5.90;5.50;;;23.30;99.90;;;;;;4939605;28;20190;-69
2023/09/11 07:15:20;;;;;;;6.00;5.50;;;23.30;99.90;;;;;;4955020;28;20235;-69
2023/09/11 07:17:48;;;;;;;5.45;5.05;;;23.30;99.90;;;;;;4955153;28;20208;-69
2023/09/11 07:20:15;;;;;;;5.72;5.22;;;23.30;99.90;;;;;;4939286;28;20657;-69
2023/09/11 07:22:41;;;;;;;6.10;5.70;;;23.30;99.90;;;;;;4939668;28;20190;-69
2023/09/11 07:25:14;;;;;;;5.78;5.38;;;23.30;99.90;;;;;;4949106;28;20233;-69
2023/09/11 07:27:40;;;;;;;6.15;5.65;;;23.30;99.90;;;;;;4943111;29;20198;-69
2023/09/11 07:30:09;;;;;;;5.95;5.45;;;23.30;99.90;;;;;;4951877;28;20256;-69
2023/09/11 07:32:34;;;;;;;5.30;4.90;;;23.30;99.90;;;;;;4955276;28;20205;-69
2023/09/11 07:35:00;;;;;;;6.13;5.63;;;23.30;99.90;;;;;;4944612;28;20230;-69
2023/09/11 07:37:26;;;;;;;6.18;5.68;;;23.30;99.90;;;;;;4955796;28;20190;-69
2023/09/11 07:39:51;;;;;;;5.43;5.03;;;23.30;99.90;;;;;;4961330;28;20191;-69
2023/09/11 07:42:17;;;;;;;6.22;5.68;;;23.30;99.90;;;;;;4958837;28;20198;-69
2023/09/11 07:44:43;;;;;;;6.25;5.78;;;23.30;99.90;;;;;;4942562;28;20737;-69
2023/09/11 07:47:09;;;;;;;5.93;5.50;;;23.30;99.90;;;;;;4961839;28;20288;-69
2023/09/11 07:49:35;;;;;;;6.28;5.78;;;23.40;99.90;;;;;;4958638;28;20273;-69
2023/09/11 07:52:01;;;;;;;6.28;5.78;;;23.40;99.90;;;;;;4958657;28;20252;-69
2023/09/11 07:54:27;;;;;;;6.07;5.68;;;23.40;99.90;;;;;;4975514;28;20194;-69
2023/09/11 07:56:53;;;;;;;5.55;5.15;;;23.40;99.90;;;;;;4948272;28;20208;-69
2023/09/11 07:59:19;;;;;;;6.40;5.90;;;23.50;99.90;;;;;;4958195;28;20217;-69
2023/09/11 08:01:44;;;;;;;6.00;5.60;;;23.50;99.90;;;;;;4958516;28;20220;-70
2023/09/11 08:04:10;;;;;;;6.28;5.78;;;23.50;99.90;;;;;;4956457;28;20193;-70
2023/09/11 08:06:36;;;;;;;6.30;5.68;;;23.50;99.90;;;;;;4955224;28;20286;-68
2023/09/11 08:09:03;;;;;;;5.85;5.40;;;23.50;99.90;;;;;;4941261;28;20576;-70
2023/09/11 08:11:31;;;;;;;5.78;5.38;;;23.50;99.90;;;;;;4961292;28;20236;-68
2023/09/11 08:13:57;;;;;;;5.97;5.57;;;23.60;99.90;;;;;;4950720;28;20191;-69
2023/09/11 08:16:23;;;;;;;5.90;5.47;;;23.50;99.90;;;;;;4947585;28;20592;-70
2023/09/11 08:18:49;;;;;;;5.85;5.10;;;23.50;99.90;;;;;;4952099;28;20194;-69
2023/09/11 08:21:14;;;;;;;5.95;5.50;;;23.50;99.90;;;;;;4963291;28;20333;-69
2023/09/11 08:23:44;;;;;;;5.70;5.20;;;23.60;99.90;;;;;;4957861;28;20661;-69
2023/09/11 08:26:10;;;;;;;5.68;5.28;;;23.50;99.90;;;;;;4938879;28;20271;-71
2023/09/11 08:28:37;;;;;;;5.43;5.03;;;23.50;99.90;;;;;;4944609;29;20198;-70
2023/09/11 08:31:03;;;;;;;6.05;5.57;;;23.50;99.90;;;;;;4941046;28;20193;-69
2023/09/11 08:33:30;;;;;;;6.07;5.57;;;23.60;99.90;;;;;;4958396;28;20193;-69
2023/09/11 08:35:56;;;;;;;6.00;5.60;;;23.60;99.90;;;;;;4958451;28;20225;-69
2023/09/11 08:38:22;;;;;;;5.53;5.13;;;23.60;99.90;;;;;;4956295;28;20208;-69
2023/09/11 08:40:48;;;;;;;5.63;5.13;;;23.50;99.90;;;;;;4960327;28;20198;-69
2023/09/11 08:43:14;;;;;;;6.22;5.72;;;23.60;99.90;;;;;;4941575;28;20241;-69
2023/09/11 08:45:40;;;;;;;5.40;5.00;;;23.60;99.90;;;;;;4957140;28;20232;-69
2023/09/11 08:48:14;;;;;;;5.82;5.32;;;23.60;99.90;;;;;;4973453;28;20292;-69
2023/09/11 08:50:50;;;;;;;5.50;5.10;;;23.60;99.90;;;;;;4957053;28;20684;-69
2023/09/11 08:53:19;;;;;;;5.15;4.85;;;23.60;99.90;;;;;;4951306;28;20561;-69
2023/09/11 08:55:47;;;;;;;5.88;5.40;;;23.60;99.90;;;;;;4937872;28;20222;-69
2023/09/11 08:58:17;;;;;;;5.60;5.10;;;23.60;99.90;;;;;;4975259;28;20190;-69
2023/09/11 09:00:43;;;;;;;5.63;5.13;;;23.60;99.90;;;;;;4934753;28;20199;-72
2023/09/11 09:03:09;;;;;;;5.63;5.13;;;23.60;99.90;;;;;;4970687;28;20197;-69
2023/09/11 09:05:36;;;;;;;5.70;5.30;;;23.60;99.90;;;;;;4956898;28;20307;-71
2023/09/11 09:08:04;;;;;;;5.82;5.32;;;23.60;99.90;;;;;;4949620;28;20566;-70
2023/09/11 09:10:30;;;;;;;5.43;5.03;;;23.60;99.90;;;;;;4945856;28;20189;-69
2023/09/11 09:12:56;;;;;;;5.78;5.28;;;23.60;99.90;;;;;;4956933;28;20201;-70
2023/09/11 09:15:25;;;;;;;5.50;5.10;;;23.60;99.90;;;;;;4940567;28;20229;-69
2023/09/11 09:17:51;;;;;;;5.10;4.78;;;23.60;99.90;;;;;;4940940;28;20197;-69
2023/09/11 09:20:17;;;;;;;5.28;4.88;;;23.60;99.90;;;;;;4948779;28;20189;-69
2023/09/11 09:22:57;;;;;;;5.50;5.10;;;23.60;99.90;;;;;;4956918;28;20193;-69
2023/09/11 09:25:25;;;;;;;5.40;5.00;;;23.60;99.90;;;;;;4939399;28;20347;-69
2023/09/11 09:27:52;;;;;;;5.18;4.78;;;23.60;99.90;;;;;;4978903;28;20209;-69
2023/09/11 09:30:26;;;;;;;5.82;5.28;;;23.60;99.90;;;;;;4941688;28;20205;-70
2023/09/11 09:32:53;;;;;;;5.60;5.20;;;23.60;99.90;;;;;;4957322;28;20197;-71
2023/09/11 09:35:32;;;;;;;5.55;5.05;;;23.60;99.90;;;;;;4961111;28;20224;-69
2023/09/11 09:38:00;;;;;;;5.25;4.82;;;23.60;99.90;;;;;;4961070;28;20212;-70
2023/09/11 09:40:38;;;;;;;5.60;5.10;;;23.60;99.90;;;;;;4973891;28;20202;-69
2023/09/11 09:43:08;;;;;;;5.65;5.15;;;23.60;99.90;;;;;;4948450;28;20206;-69
2023/09/11 09:45:39;;;;;;;5.53;5.10;;;23.60;99.90;;;;;;4956385;28;20212;-69
2023/09/11 09:48:19;;;;;;;6.18;5.57;;;23.60;99.90;;;;;;4949415;28;20240;-70
2023/09/11 09:51:01;;;;;;;5.85;5.20;;;23.60;99.90;;;;;;4955342;28;20201;-70
2023/09/11 09:53:34;;;;;;;5.25;4.85;;;23.60;99.90;;;;;;4958679;28;20222;-69
2023/09/11 09:56:07;;;;;;;5.85;5.32;;;23.60;99.90;;;;;;4943431;28;20226;-69
2023/09/11 09:58:44;;;;;;;5.80;5.40;;;23.60;99.90;;;;;;4956359;28;20190;-69
2023/09/11 10:01:20;;;;;;;5.22;4.65;;;23.60;99.90;;;;;;4937071;28;20197;-69
2023/09/11 10:03:53;;;;;;;5.53;5.03;;;23.60;99.90;;;;;;4977581;28;20185;-69
2023/09/11 10:06:27;;;;;;;5.88;5.38;;;23.60;99.90;;;;;;4960532;28;20315;-68
2023/09/11 10:09:12;;;;;;;6.32;5.72;;;23.60;99.90;;;;;;4955992;28;20205;-69
2023/09/11 10:11:40;;;;;;;6.30;5.80;;;23.60;99.90;;;;;;4965313;28;20196;-69
2023/09/11 10:14:08;;;;;;;5.75;5.25;;;23.60;99.90;;;;;;4955885;28;20193;-69
2023/09/11 10:16:35;;;;;;;5.75;5.25;;;23.60;99.90;;;;;;4939711;28;20225;-70
2023/09/11 10:19:02;;;;;;;5.97;5.57;;;23.60;99.90;;;;;;4948722;28;20216;-69
2023/09/11 10:21:30;;;;;;;6.03;5.53;;;23.60;99.90;;;;;;4948578;28;20190;-68
2023/09/11 10:23:56;;;;;;;6.60;5.95;;;23.60;99.90;;;;;;4955664;28;20240;-69
2023/09/11 10:26:47;;;;;;;5.82;5.30;;;23.60;99.90;;;;;;4973088;28;20349;-69
2023/09/11 10:29:40;;;;;;;6.35;5.85;;;23.60;99.90;;;;;;4969914;28;20199;-69
2023/09/11 10:32:22;;;;;;;6.22;5.65;;;23.60;99.90;;;;;;4955925;28;20256;-70
2023/09/11 10:34:51;;;;;;;6.57;6.00;;;23.60;99.90;;;;;;4939730;28;20268;-69
2023/09/11 10:37:21;;;;;;;6.15;5.65;;;23.60;99.90;;;;;;4972733;28;20192;-69
2023/09/11 10:39:50;;;;;;;5.82;5.32;;;23.60;99.90;;;;;;4972905;28;20285;-70
2023/09/11 10:42:17;;;;;;;6.32;5.82;;;23.60;99.90;;;;;;4939989;28;20268;-70
2023/09/11 10:44:42;;;;;;;6.38;5.78;;;23.60;99.90;;;;;;4947711;28;20278;-70
2023/09/11 10:47:11;;;;;;;6.75;6.15;;;23.60;99.90;;;;;;4973048;28;20186;-70
2023/09/11 10:49:37;;;;;;;5.70;5.30;;;23.70;99.90;;;;;;4944139;28;20189;-69
2023/09/11 10:52:08;;;;;;;6.28;5.68;;;23.60;99.90;;;;;;4955032;28;20550;-70
2023/09/11 10:54:35;;;;;;;5.93;5.47;;;23.70;99.90;;;;;;4939304;28;20200;-70
2023/09/11 10:57:01;;;;;;;6.22;5.70;;;23.70;99.90;;;;;;4945616;28;20233;-70
2023/09/11 10:59:29;;;;;;;6.50;5.90;;;23.70;99.90;;;;;;4947504;28;20205;-70
2023/09/11 11:01:56;;;;;;;7.15;6.45;;;23.70;99.90;;;;;;4955556;28;20649;-69
2023/09/11 11:04:24;;;;;;;6.35;5.85;;;23.70;99.90;;;;;;4947285;28;20316;-70
2023/09/11 11:06:55;;;;;;;6.20;5.70;;;23.70;99.90;;;;;;4942817;28;20367;-69
2023/09/11 11:09:35;;;;;;;6.65;6.07;;;23.70;99.90;;;;;;4957337;28;20194;-70
2023/09/11 11:12:13;;;;;;;6.25;5.75;;;23.70;99.90;;;;;;4940712;28;20193;-69
2023/09/11 11:14:39;;;;;;;5.97;5.40;;;23.70;99.90;;;;;;4954144;28;20197;-70
2023/09/11 11:17:08;;;;;;;5.97;5.47;;;23.70;99.90;;;;;;4983761;28;20201;-70
2023/09/11 11:19:59;;;;;;;6.30;5.70;;;23.70;99.90;;;;;;4953578;28;20197;-70
2023/09/11 11:22:34;;;;;;;6.60;6.00;;;23.70;99.90;;;;;;4944658;28;20209;-70
2023/09/11 11:25:05;;;;;;;6.60;5.70;;;23.70;99.90;;;;;;4962307;28;20216;-69
2023/09/11 11:27:31;;;;;;;6.13;5.63;;;23.70;99.90;;;;;;4978488;28;20240;-70
2023/09/11 11:29:57;;;;;;;6.30;5.80;;;23.70;99.90;;;;;;4944721;28;20657;-70
2023/09/11 11:32:25;;;;;;;5.97;5.47;;;23.70;99.90;;;;;;4958583;28;20264;-70
2023/09/11 11:34:51;;;;;;;6.57;5.97;;;23.70;99.90;;;;;;4962289;28;20256;-70
2023/09/11 11:37:20;;;;;;;6.50;5.90;;;23.70;99.90;;;;;;4946523;28;20178;-70
2023/09/11 11:39:47;;;;;;;6.55;5.80;;;23.70;99.90;;;;;;4943392;28;20210;-70
2023/09/11 11:42:14;;;;;;;5.80;5.30;;;23.70;99.90;;;;;;4976048;28;20218;-70
2023/09/11 11:44:41;;;;;;;6.40;5.78;;;23.70;99.90;;;;;;4961902;28;20185;-70
2023/09/11 11:47:07;;;;;;;6.00;5.50;;;23.70;99.90;;;;;;4954360;28;20193;-70
2023/09/11 11:49:36;;;;;;;6.18;5.68;;;23.70;99.90;;;;;;4966098;28;20250;-70
2023/09/11 11:52:04;;;;;;;5.85;5.35;;;23.70;99.90;;;;;;4966499;28;20573;-70
2023/09/11 11:54:30;;;;;;;6.50;5.95;;;23.70;99.90;;;;;;4950151;28;20185;-70
2023/09/11 11:57:01;;;;;;;6.13;5.53;;;23.70;99.90;;;;;;4951714;28;20211;-70
2023/09/11 11:59:34;;;;;;;6.43;5.90;;;23.70;99.90;;;;;;4947689;28;20194;-69
2023/09/11 12:02:00;;;;;;;6.45;5.85;;;23.70;99.90;;;;;;4975635;28;20189;-70
2023/09/11 12:04:26;;;;;;;6.45;5.88;;;23.70;99.90;;;;;;4945745;28;20198;-71
2023/09/11 12:06:54;;;;;;;6.25;5.65;;;23.70;99.90;;;;;;4958780;28;20222;-71
2023/09/11 12:09:21;;;;;;;6.57;5.97;;;23.70;99.90;;;;;;4959942;28;20196;-71
2023/09/11 12:11:51;;;;;;;6.55;5.95;;;23.70;99.90;;;;;;4950427;28;20266;-71
2023/09/11 12:14:18;;;;;;;6.57;5.88;;;23.80;99.90;;;;;;4949952;28;20217;-71
2023/09/11 12:16:45;;;;;;;6.18;5.68;;;23.70;99.90;;;;;;4978892;28;20275;-70
2023/09/11 12:19:11;;;;;;;6.50;5.95;;;23.70;99.90;;;;;;4962959;28;20213;-70
2023/09/11 12:21:47;;;;;;;6.22;5.72;;;23.70;99.90;;;;;;4980717;28;20276;-70
2023/09/11 12:24:13;;;;;;;6.38;5.88;;;23.80;99.90;;;;;;4950685;29;20263;-70
2023/09/11 12:26:40;;;;;;;6.32;5.82;;;23.80;99.90;;;;;;4966010;28;20210;-70
2023/09/11 12:29:06;;;;;;;6.15;5.57;;;23.80;99.90;;;;;;4950994;28;20198;-70
2023/09/11 12:31:32;;;;;;;7.03;5.18;;;23.70;99.90;;;;;;4971580;28;20186;-70
2023/09/11 12:33:58;;;;;;;6.45;5.85;;;23.80;99.90;;;;;;4959433;28;20185;-70
2023/09/11 12:36:25;;;;;;;6.63;6.03;;;23.80;99.90;;;;;;4963621;28;20271;-70
2023/09/11 12:38:51;;;;;;;6.15;5.63;;;23.80;99.90;;;;;;4974130;28;20200;-70
2023/09/11 12:41:18;;;;;;;5.88;5.40;;;23.80;99.90;;;;;;4951263;28;20232;-70
2023/09/11 12:43:45;;;;;;;5.90;5.40;;;23.80;99.90;;;;;;4966897;28;20197;-72
2023/09/11 12:46:15;;;;;;;6.20;5.70;;;23.80;99.90;;;;;;4968975;28;20210;-70
2023/09/11 12:48:44;;;;;;;6.57;5.78;;;23.80;99.90;;;;;;4966567;28;20196;-69
2023/09/11 12:51:11;;;;;;;5.97;5.47;;;23.80;99.90;;;;;;4950052;28;20190;-70
2023/09/11 12:53:37;;;;;;;6.88;6.25;;;23.80;99.90;;;;;;4956607;28;20179;-69